createdAt,value
2023-02-09T00:00:13.294Z,103743.31
2023-02-09T00:05:12.683Z,103746.94
2023-02-09T00:10:11.823Z,103752.84
2023-02-09T00:15:12.268Z,103744.28
2023-02-09T00:20:12.133Z,103745.19
2023-02-09T00:25:10.976Z,103747.00
2023-02-09T00:30:12.708Z,103739.28
2023-02-09T00:35:11.677Z,103741.44
2023-02-09T00:40:11.519Z,103748.28
2023-02-09T00:45:12.111Z,103747.09
2023-02-09T00:50:11.109Z,103751.44
2023-02-09T00:55:10.728Z,103754.13
2023-02-09T01:00:15.488Z,103746.88
2023-02-09T01:05:14.264Z,103743.22
2023-02-09T01:10:13.041Z,103738.16
2023-02-09T01:15:14.635Z,103732.94
2023-02-09T01:20:16.474Z,103725.38
2023-02-09T01:25:15.219Z,103715.94
2023-02-09T01:30:16.301Z,103720.03
2023-02-09T01:35:15.077Z,103726.06
2023-02-09T01:40:14.242Z,103727.38
2023-02-09T01:45:29.750Z,103742.66
2023-02-09T01:50:32.174Z,103743.78
2023-02-09T01:55:33.950Z,103731.47
2023-02-09T02:00:34.147Z,103734.53
2023-02-09T02:05:36.411Z,103735.50
2023-02-09T02:10:35.718Z,103728.41
2023-02-09T02:15:43.656Z,103715.03
2023-02-09T02:21:21.938Z,103718.72
2023-02-09T02:26:55.893Z,103724.19
2023-02-09T02:32:15.698Z,103715.41
2023-02-09T02:37:30.666Z,103721.00
2023-02-09T02:42:52.193Z,103713.28
2023-02-09T02:48:00.781Z,103710.31
2023-02-09T02:53:03.174Z,103709.50
2023-02-09T02:58:07.548Z,103705.16
2023-02-09T03:03:13.089Z,103704.94
2023-02-09T03:08:11.912Z,103705.16
2023-02-09T03:13:30.548Z,103702.13
2023-02-09T03:18:36.725Z,103700.69
2023-02-09T03:23:46.857Z,103692.34
2023-02-09T03:28:49.191Z,103698.53
2023-02-09T03:33:50.527Z,103694.44
2023-02-09T03:38:49.675Z,103684.31
2023-02-09T03:44:10.900Z,103677.53
2023-02-09T03:49:13.541Z,103679.63
2023-02-09T03:54:12.316Z,103687.44
2023-02-09T03:59:11.212Z,103682.34
2023-02-09T04:04:11.517Z,103685.03
2023-02-09T04:09:10.409Z,103675.63
2023-02-09T04:14:09.976Z,103677.22
2023-02-09T04:19:09.866Z,103666.75
2023-02-09T04:24:11.033Z,103652.81
2023-02-09T04:29:10.042Z,103661.88
2023-02-09T04:34:08.913Z,103654.25
2023-02-09T04:39:09.155Z,103650.91
2023-02-09T04:44:07.998Z,103656.13
2023-02-09T04:49:06.851Z,103646.53
2023-02-09T04:54:05.743Z,103633.59
2023-02-09T04:59:23.134Z,103638.72
2023-02-09T05:04:22.015Z,103640.50
2023-02-09T05:09:20.784Z,103638.13
2023-02-09T05:14:21.051Z,103634.41
2023-02-09T05:19:20.012Z,103633.94
2023-02-09T05:24:18.797Z,103624.53
2023-02-09T05:29:17.573Z,103637.03
2023-02-09T05:34:17.817Z,103636.09
2023-02-09T05:39:16.603Z,103637.78
2023-02-09T05:44:15.358Z,103639.38
2023-02-09T05:49:14.195Z,103645.97
2023-02-09T05:54:14.467Z,103640.97
2023-02-09T05:59:13.250Z,103652.06
2023-02-09T06:04:12.365Z,103658.69
2023-02-09T06:09:11.510Z,103657.75
2023-02-09T06:14:12.835Z,103663.13
2023-02-09T06:19:14.357Z,103659.63
2023-02-09T06:24:13.870Z,103663.88
2023-02-09T06:29:14.204Z,103660.44
2023-02-09T06:34:13.006Z,103661.53
2023-02-09T06:39:12.650Z,103667.47
2023-02-09T06:44:12.088Z,103661.13
2023-02-09T06:49:12.477Z,103671.88
2023-02-09T06:54:11.686Z,103663.00
2023-02-09T06:59:10.572Z,103657.84
2023-02-09T07:04:09.382Z,103673.00
2023-02-09T07:09:09.532Z,103672.00
2023-02-09T07:14:08.375Z,103677.31
2023-02-09T07:19:07.174Z,103675.59
2023-02-09T07:24:06.737Z,103684.31
2023-02-09T07:29:06.999Z,103686.75
2023-02-09T07:34:05.865Z,103689.00
2023-02-09T07:39:04.870Z,103693.50
2023-02-09T07:44:03.852Z,103687.53
2023-02-09T07:49:04.391Z,103680.13
2023-02-09T07:54:04.132Z,103671.06
2023-02-09T07:59:09.549Z,103665.00
2023-02-09T08:04:09.785Z,103673.47
2023-02-09T08:09:09.533Z,103681.50
2023-02-09T08:14:12.304Z,103686.38
2023-02-09T08:19:14.484Z,103668.16
2023-02-09T08:24:14.506Z,103668.09
2023-02-09T08:29:14.135Z,103668.63
2023-02-09T08:34:14.826Z,103675.16
2023-02-09T08:39:13.566Z,103681.28
2023-02-09T08:44:12.443Z,103666.81
2023-02-09T08:49:11.660Z,103679.38
2023-02-09T08:54:11.880Z,103677.09
2023-02-09T08:59:10.595Z,103671.63
2023-02-09T09:04:10.096Z,103680.56
2023-02-09T09:09:08.969Z,103673.66
2023-02-09T09:14:09.319Z,103671.56
2023-02-09T09:19:08.514Z,103670.16
2023-02-09T09:24:07.528Z,103679.09
2023-02-09T09:29:06.345Z,103656.97
2023-02-09T09:34:06.946Z,103668.06
2023-02-09T09:39:05.733Z,103670.19
2023-02-09T09:44:09.996Z,103655.47
2023-02-09T09:49:20.954Z,103649.75
2023-02-09T09:54:22.411Z,103639.63
2023-02-09T09:59:24.398Z,103633.91
2023-02-09T10:04:24.584Z,103628.69
2023-02-09T10:09:38.599Z,103616.66
2023-02-09T10:14:37.411Z,103608.16
2023-02-09T10:19:37.537Z,103605.22
2023-02-09T10:24:39.886Z,103605.75
2023-02-09T10:29:38.776Z,103602.16
2023-02-09T10:34:46.707Z,103596.44
2023-02-09T10:39:46.755Z,103588.16
2023-02-09T10:44:49.369Z,103580.72
2023-02-09T10:49:54.971Z,103569.47
2023-02-09T10:54:56.682Z,103572.03
2023-02-09T10:59:57.617Z,103567.31
2023-02-09T11:04:57.886Z,103558.69
2023-02-09T11:09:59.654Z,103551.50
2023-02-09T11:14:58.385Z,103553.25
2023-02-09T11:20:18.617Z,103551.94
2023-02-09T11:25:23.421Z,103546.00
2023-02-09T11:30:43.542Z,103545.94
2023-02-09T11:35:53.694Z,103541.31
2023-02-09T11:40:55.184Z,103528.78
2023-02-09T11:45:58.319Z,103511.69
2023-02-09T11:51:05.409Z,103498.56
2023-02-09T11:56:06.677Z,103497.66
2023-02-09T12:01:16.293Z,103494.00
2023-02-09T12:06:23.005Z,103492.28
2023-02-09T12:11:36.338Z,103494.16
2023-02-09T12:16:38.548Z,103496.75
2023-02-09T12:21:42.268Z,103487.19
2023-02-09T12:26:44.789Z,103489.84
2023-02-09T12:32:16.663Z,103490.75
2023-02-09T12:37:35.882Z,103485.50
2023-02-09T12:42:41.422Z,103482.88
2023-02-09T12:47:45.820Z,103481.91
2023-02-09T12:53:17.705Z,103474.09
2023-02-09T12:58:37.451Z,103475.78
2023-02-09T13:03:45.258Z,103474.91
2023-02-09T13:08:50.162Z,103472.38
2023-02-09T13:13:55.929Z,103471.31
2023-02-09T13:19:05.442Z,103481.69
2023-02-09T13:24:09.164Z,103472.31
2023-02-09T13:29:20.493Z,103465.22
2023-02-09T13:34:30.759Z,103472.97
2023-02-09T13:39:35.987Z,103466.19
2023-02-09T13:44:36.301Z,103462.47
2023-02-09T13:49:35.147Z,103452.88
2023-02-09T13:54:33.970Z,103448.19
2023-02-09T13:59:32.797Z,103445.06
2023-02-09T14:04:36.068Z,103448.69
2023-02-09T14:09:45.011Z,103444.03
2023-02-09T14:15:07.709Z,103434.56
2023-02-09T14:20:22.512Z,103435.50
2023-02-09T14:25:24.958Z,103432.94
2023-02-09T14:30:27.010Z,103424.31
2023-02-09T14:35:29.636Z,103429.94
2023-02-09T14:40:34.005Z,103428.75
2023-02-09T14:45:38.933Z,103425.59
2023-02-09T14:50:39.367Z,103434.03
2023-02-09T14:55:40.574Z,103429.59
2023-02-09T15:00:39.735Z,103426.31
2023-02-09T15:05:40.220Z,103430.91
2023-02-09T15:10:43.380Z,103430.94
2023-02-09T15:15:43.173Z,103438.69
2023-02-09T15:20:43.492Z,103443.44
2023-02-09T15:25:43.357Z,103443.47
2023-02-09T15:30:42.205Z,103441.69
2023-02-09T15:35:41.603Z,103435.59
2023-02-09T15:41:01.870Z,103445.66
2023-02-09T15:46:18.228Z,103452.16
2023-02-09T15:51:18.080Z,103457.53
2023-02-09T15:56:18.977Z,103452.53
2023-02-09T16:01:19.852Z,103451.34
2023-02-09T16:06:25.141Z,103456.22
2023-02-09T16:11:33.109Z,103467.31
2023-02-09T16:16:32.272Z,103464.06
2023-02-09T16:21:33.560Z,103457.13
2023-02-09T16:26:35.538Z,103458.56
2023-02-09T16:31:34.498Z,103463.56
2023-02-09T16:36:33.953Z,103467.50
2023-02-09T16:41:50.649Z,103469.16
2023-02-09T16:46:51.660Z,103470.66
2023-02-09T16:51:50.447Z,103470.28
2023-02-09T16:56:54.600Z,103478.66
2023-02-09T17:01:53.621Z,103480.03
2023-02-09T17:06:53.373Z,103476.38
2023-02-09T17:11:53.510Z,103480.34
2023-02-09T17:16:52.987Z,103474.09
2023-02-09T17:21:51.707Z,103478.28
2023-02-09T17:26:50.503Z,103485.88
2023-02-09T17:31:53.545Z,103479.59
2023-02-09T17:36:52.678Z,103482.00
2023-02-09T17:41:51.620Z,103480.13
2023-02-09T17:46:52.227Z,103471.28
2023-02-09T17:51:51.648Z,103476.94
2023-02-09T17:56:50.427Z,103462.94
2023-02-09T18:01:51.276Z,103467.06
2023-02-09T18:06:50.359Z,103465.00
2023-02-09T18:12:02.214Z,103463.78
2023-02-09T18:17:03.943Z,103464.19
2023-02-09T18:22:03.772Z,103463.78
2023-02-09T18:27:02.824Z,103463.59
2023-02-09T18:32:05.309Z,103460.84
2023-02-09T18:37:04.314Z,103473.47
2023-02-09T18:42:03.452Z,103456.03
2023-02-09T18:47:02.527Z,103460.28
2023-02-09T18:52:02.885Z,103449.69
2023-02-09T18:57:01.985Z,103448.69
2023-02-09T19:02:01.270Z,103453.59
2023-02-09T19:07:00.546Z,103449.75
2023-02-09T19:12:01.350Z,103445.78
2023-02-09T19:17:00.145Z,103438.81
2023-02-09T19:22:00.299Z,103433.41
2023-02-09T19:27:00.449Z,103440.69
2023-02-09T19:31:59.253Z,103430.25
2023-02-09T19:36:58.144Z,103427.88
2023-02-09T19:41:56.886Z,103440.31
2023-02-09T19:46:57.045Z,103430.09
2023-02-09T19:51:55.771Z,103421.50
2023-02-09T19:56:54.518Z,103428.22
2023-02-09T20:01:53.423Z,103428.53
2023-02-09T20:06:53.656Z,103433.66
2023-02-09T20:11:52.512Z,103439.16
2023-02-09T20:16:53.423Z,103435.13
2023-02-09T20:21:53.582Z,103437.75
2023-02-09T20:26:52.355Z,103430.19
2023-02-09T20:31:51.270Z,103436.34
2023-02-09T20:36:50.727Z,103429.50
2023-02-09T20:42:14.429Z,103436.38
2023-02-09T20:47:13.278Z,103426.81
2023-02-09T20:52:12.446Z,103431.81
2023-02-09T20:57:12.905Z,103415.41
2023-02-09T21:02:12.769Z,103415.94
2023-02-09T21:07:11.602Z,103417.66
2023-02-09T21:12:10.576Z,103426.41
2023-02-09T21:17:10.816Z,103423.72
2023-02-09T21:22:09.924Z,103437.16
2023-02-09T21:27:09.246Z,103430.03
2023-02-09T21:32:08.696Z,103424.31
2023-02-09T21:37:13.051Z,103421.84
2023-02-09T21:42:28.931Z,103414.22
2023-02-09T21:47:28.321Z,103402.28
2023-02-09T21:52:29.995Z,103407.47
2023-02-09T21:57:29.691Z,103397.06
2023-02-09T22:02:28.641Z,103405.59
2023-02-09T22:07:29.286Z,103401.31
2023-02-09T22:12:28.041Z,103405.34
2023-02-09T22:17:27.151Z,103396.78
2023-02-09T22:22:25.949Z,103399.25
2023-02-09T22:27:26.297Z,103408.72
2023-02-09T22:32:25.158Z,103403.53
2023-02-09T22:37:24.571Z,103406.56
2023-02-09T22:42:23.332Z,103408.66
2023-02-09T22:47:23.515Z,103410.28
2023-02-09T22:52:22.386Z,103414.34
2023-02-09T22:57:21.245Z,103406.69
2023-02-09T23:02:20.044Z,103414.88
2023-02-09T23:07:20.196Z,103403.59
2023-02-09T23:12:18.932Z,103405.66
2023-02-09T23:17:17.798Z,103397.38
2023-02-09T23:22:16.653Z,103397.53
2023-02-09T23:27:16.880Z,103401.09
2023-02-09T23:32:15.678Z,103399.50
2023-02-09T23:37:23.607Z,103391.94
2023-02-09T23:42:34.789Z,103391.41
2023-02-09T23:47:33.609Z,103385.34
2023-02-09T23:52:32.361Z,103388.81
2023-02-09T23:57:31.573Z,103384.13
